sensor_id;sensor_type;location;lat;lon;timestamp;P1;durP1;ratioP1;P2;durP2;ratioP2
3547;SDS011;1788;49.400;11.092;2022-10-13T00:00:29;31.27;;;17.53;;
3547;SDS011;1788;49.400;11.092;2022-10-13T00:02:58;35.90;;;18.70;;
3547;SDS011;1788;49.400;11.092;2022-10-13T00:05:22;35.00;;;16.83;;
3547;SDS011;1788;49.400;11.092;2022-10-13T00:07:49;24.30;;;14.13;;
3547;SDS011;1788;49.400;11.092;2022-10-13T00:10:15;23.13;;;12.90;;
3547;SDS011;1788;49.400;11.092;2022-10-13T00:12:43;31.10;;;16.53;;
3547;SDS011;1788;49.400;11.092;2022-10-13T00:15:09;33.23;;;16.93;;
3547;SDS011;1788;49.400;11.092;2022-10-13T00:17:36;37.10;;;18.20;;
3547;SDS011;1788;49.400;11.092;2022-10-13T00:20:03;32.93;;;17.23;;
3547;SDS011;1788;49.400;11.092;2022-10-13T00:22:29;28.47;;;15.77;;
3547;SDS011;1788;49.400;11.092;2022-10-13T00:24:56;33.50;;;17.53;;
3547;SDS011;1788;49.400;11.092;2022-10-13T00:27:22;27.27;;;14.07;;
3547;SDS011;1788;49.400;11.092;2022-10-13T00:29:50;35.93;;;17.53;;
3547;SDS011;1788;49.400;11.092;2022-10-13T00:32:16;36.17;;;18.63;;
3547;SDS011;1788;49.400;11.092;2022-10-13T00:34:43;37.87;;;20.13;;
3547;SDS011;1788;49.400;11.092;2022-10-13T00:37:10;35.00;;;20.23;;
3547;SDS011;1788;49.400;11.092;2022-10-13T00:39:36;36.87;;;19.63;;
3547;SDS011;1788;49.400;11.092;2022-10-13T00:42:03;37.27;;;20.00;;
3547;SDS011;1788;49.400;11.092;2022-10-13T00:46:57;32.90;;;17.40;;
3547;SDS011;1788;49.400;11.092;2022-10-13T00:49:23;33.97;;;17.10;;
3547;SDS011;1788;49.400;11.092;2022-10-13T00:51:51;35.40;;;19.53;;
3547;SDS011;1788;49.400;11.092;2022-10-13T00:54:19;35.73;;;19.87;;
3547;SDS011;1788;49.400;11.092;2022-10-13T00:56:44;42.20;;;20.53;;
3547;SDS011;1788;49.400;11.092;2022-10-13T00:59:12;38.67;;;19.47;;
3547;SDS011;1788;49.400;11.092;2022-10-13T01:01:37;43.13;;;20.87;;
3547;SDS011;1788;49.400;11.092;2022-10-13T01:04:04;35.73;;;18.67;;
3547;SDS011;1788;49.400;11.092;2022-10-13T01:06:31;29.67;;;16.97;;
3547;SDS011;1788;49.400;11.092;2022-10-13T01:08:57;35.00;;;17.93;;
3547;SDS011;1788;49.400;11.092;2022-10-13T01:13:54;38.23;;;18.27;;
3547;SDS011;1788;49.400;11.092;2022-10-13T01:21:14;34.13;;;17.80;;
3547;SDS011;1788;49.400;11.092;2022-10-13T01:31:02;32.17;;;17.57;;
3547;SDS011;1788;49.400;11.092;2022-10-13T01:45:41;35.17;;;18.30;;
3547;SDS011;1788;49.400;11.092;2022-10-13T01:48:06;34.83;;;18.43;;
3547;SDS011;1788;49.400;11.092;2022-10-13T01:50:32;39.10;;;18.37;;
3547;SDS011;1788;49.400;11.092;2022-10-13T01:53:00;34.17;;;18.50;;
3547;SDS011;1788;49.400;11.092;2022-10-13T01:55:26;37.67;;;17.97;;
3547;SDS011;1788;49.400;11.092;2022-10-13T01:57:52;35.00;;;18.77;;
3547;SDS011;1788;49.400;11.092;2022-10-13T02:00:20;37.60;;;18.50;;
3547;SDS011;1788;49.400;11.092;2022-10-13T02:02:51;38.30;;;18.17;;
3547;SDS011;1788;49.400;11.092;2022-10-13T02:05:18;34.17;;;17.53;;
3547;SDS011;1788;49.400;11.092;2022-10-13T02:07:43;31.80;;;17.10;;
3547;SDS011;1788;49.400;11.092;2022-10-13T02:12:34;37.20;;;18.83;;
3547;SDS011;1788;49.400;11.092;2022-10-13T02:17:32;35.10;;;17.70;;
3547;SDS011;1788;49.400;11.092;2022-10-13T02:19:59;32.67;;;17.17;;
3547;SDS011;1788;49.400;11.092;2022-10-13T02:22:28;33.47;;;16.67;;
3547;SDS011;1788;49.400;11.092;2022-10-13T02:24:54;36.47;;;18.33;;
3547;SDS011;1788;49.400;11.092;2022-10-13T02:27:21;43.27;;;18.63;;
3547;SDS011;1788;49.400;11.092;2022-10-13T02:29:49;34.17;;;17.40;;
3547;SDS011;1788;49.400;11.092;2022-10-13T02:32:15;36.70;;;17.90;;
3547;SDS011;1788;49.400;11.092;2022-10-13T02:34:41;37.10;;;18.43;;
3547;SDS011;1788;49.400;11.092;2022-10-13T02:37:09;33.53;;;18.30;;
3547;SDS011;1788;49.400;11.092;2022-10-13T02:39:35;34.03;;;17.97;;
3547;SDS011;1788;49.400;11.092;2022-10-13T02:42:03;31.40;;;16.97;;
3547;SDS011;1788;49.400;11.092;2022-10-13T02:44:29;33.67;;;17.17;;
3547;SDS011;1788;49.400;11.092;2022-10-13T02:46:56;37.17;;;18.40;;
3547;SDS011;1788;49.400;11.092;2022-10-13T02:49:22;35.03;;;17.77;;
3547;SDS011;1788;49.400;11.092;2022-10-13T02:51:49;32.37;;;18.40;;
3547;SDS011;1788;49.400;11.092;2022-10-13T02:54:16;35.77;;;18.67;;
3547;SDS011;1788;49.400;11.092;2022-10-13T02:56:43;34.60;;;18.40;;
3547;SDS011;1788;49.400;11.092;2022-10-13T02:59:10;37.53;;;18.30;;
3547;SDS011;1788;49.400;11.092;2022-10-13T03:01:36;35.87;;;18.33;;
3547;SDS011;1788;49.400;11.092;2022-10-13T03:04:03;39.80;;;19.33;;
3547;SDS011;1788;49.400;11.092;2022-10-13T03:06:29;37.00;;;18.00;;
3547;SDS011;1788;49.400;11.092;2022-10-13T03:08:56;43.00;;;19.70;;
3547;SDS011;1788;49.400;11.092;2022-10-13T03:11:24;32.47;;;18.50;;
3547;SDS011;1788;49.400;11.092;2022-10-13T03:13:50;33.27;;;16.40;;
3547;SDS011;1788;49.400;11.092;2022-10-13T03:16:17;32.37;;;16.47;;
3547;SDS011;1788;49.400;11.092;2022-10-13T03:18:44;29.10;;;17.70;;
3547;SDS011;1788;49.400;11.092;2022-10-13T03:21:12;33.37;;;16.83;;
3547;SDS011;1788;49.400;11.092;2022-10-13T03:23:38;35.90;;;16.67;;
3547;SDS011;1788;49.400;11.092;2022-10-13T03:26:05;34.93;;;18.30;;
3547;SDS011;1788;49.400;11.092;2022-10-13T03:28:31;32.67;;;17.20;;
3547;SDS011;1788;49.400;11.092;2022-10-13T03:30:59;33.23;;;17.00;;
3547;SDS011;1788;49.400;11.092;2022-10-13T03:33:25;32.43;;;16.63;;
3547;SDS011;1788;49.400;11.092;2022-10-13T03:35:51;32.67;;;17.57;;
3547;SDS011;1788;49.400;11.092;2022-10-13T03:38:18;37.13;;;18.07;;
3547;SDS011;1788;49.400;11.092;2022-10-13T03:40:45;35.67;;;17.63;;
3547;SDS011;1788;49.400;11.092;2022-10-13T03:43:11;34.23;;;17.03;;
3547;SDS011;1788;49.400;11.092;2022-10-13T03:45:39;33.10;;;16.70;;
3547;SDS011;1788;49.400;11.092;2022-10-13T03:48:05;32.70;;;16.80;;
3547;SDS011;1788;49.400;11.092;2022-10-13T03:50:32;35.87;;;18.50;;
3547;SDS011;1788;49.400;11.092;2022-10-13T03:52:58;26.73;;;13.33;;
3547;SDS011;1788;49.400;11.092;2022-10-13T03:55:25;38.67;;;18.73;;
3547;SDS011;1788;49.400;11.092;2022-10-13T03:57:52;31.83;;;18.77;;
3547;SDS011;1788;49.400;11.092;2022-10-13T04:00:18;39.10;;;19.80;;
3547;SDS011;1788;49.400;11.092;2022-10-13T04:02:47;39.30;;;20.20;;
3547;SDS011;1788;49.400;11.092;2022-10-13T04:05:12;28.67;;;15.23;;
3547;SDS011;1788;49.400;11.092;2022-10-13T04:07:39;33.17;;;16.97;;
3547;SDS011;1788;49.400;11.092;2022-10-13T04:10:06;37.07;;;18.43;;
3547;SDS011;1788;49.400;11.092;2022-10-13T04:12:32;34.00;;;15.63;;
3547;SDS011;1788;49.400;11.092;2022-10-13T04:14:59;41.10;;;20.37;;
3547;SDS011;1788;49.400;11.092;2022-10-13T04:17:26;36.83;;;19.33;;
3547;SDS011;1788;49.400;11.092;2022-10-13T04:19:52;41.47;;;20.70;;
3547;SDS011;1788;49.400;11.092;2022-10-13T04:22:19;39.30;;;20.43;;
3547;SDS011;1788;49.400;11.092;2022-10-13T04:24:46;44.00;;;21.60;;
3547;SDS011;1788;49.400;11.092;2022-10-13T04:27:12;32.47;;;16.33;;
3547;SDS011;1788;49.400;11.092;2022-10-13T04:29:39;45.73;;;21.33;;
3547;SDS011;1788;49.400;11.092;2022-10-13T04:32:05;48.30;;;22.13;;
3547;SDS011;1788;49.400;11.092;2022-10-13T04:34:33;48.93;;;22.37;;
3547;SDS011;1788;49.400;11.092;2022-10-13T04:36:59;42.90;;;21.47;;
3547;SDS011;1788;49.400;11.092;2022-10-13T04:39:26;33.33;;;16.43;;
3547;SDS011;1788;49.400;11.092;2022-10-13T04:41:54;48.30;;;22.70;;
3547;SDS011;1788;49.400;11.092;2022-10-13T04:44:20;42.40;;;21.67;;
3547;SDS011;1788;49.400;11.092;2022-10-13T04:46:47;44.70;;;21.67;;
3547;SDS011;1788;49.400;11.092;2022-10-13T04:49:14;40.67;;;21.63;;
3547;SDS011;1788;49.400;11.092;2022-10-13T04:51:41;41.90;;;20.30;;
3547;SDS011;1788;49.400;11.092;2022-10-13T04:54:08;47.90;;;22.37;;
3547;SDS011;1788;49.400;11.092;2022-10-13T04:56:35;45.63;;;23.23;;
3547;SDS011;1788;49.400;11.092;2022-10-13T04:59:03;41.97;;;21.57;;
3547;SDS011;1788;49.400;11.092;2022-10-13T05:01:30;43.70;;;22.20;;
3547;SDS011;1788;49.400;11.092;2022-10-13T05:03:57;41.27;;;22.80;;
3547;SDS011;1788;49.400;11.092;2022-10-13T05:06:25;55.20;;;25.57;;
3547;SDS011;1788;49.400;11.092;2022-10-13T05:08:51;44.40;;;22.97;;
3547;SDS011;1788;49.400;11.092;2022-10-13T05:11:17;45.87;;;21.43;;
3547;SDS011;1788;49.400;11.092;2022-10-13T05:13:44;35.50;;;16.57;;
3547;SDS011;1788;49.400;11.092;2022-10-13T05:21:44;41.53;;;19.00;;
3547;SDS011;1788;49.400;11.092;2022-10-13T05:24:10;46.40;;;23.07;;
3547;SDS011;1788;49.400;11.092;2022-10-13T05:26:37;41.77;;;19.23;;
3547;SDS011;1788;49.400;11.092;2022-10-13T05:29:04;45.00;;;21.20;;
3547;SDS011;1788;49.400;11.092;2022-10-13T05:31:31;42.40;;;20.93;;
3547;SDS011;1788;49.400;11.092;2022-10-13T05:33:57;33.87;;;16.93;;
3547;SDS011;1788;49.400;11.092;2022-10-13T05:36:25;32.77;;;17.77;;
3547;SDS011;1788;49.400;11.092;2022-10-13T05:38:51;32.60;;;17.10;;
3547;SDS011;1788;49.400;11.092;2022-10-13T05:41:17;45.23;;;21.27;;
3547;SDS011;1788;49.400;11.092;2022-10-13T05:43:43;39.10;;;19.47;;
3547;SDS011;1788;49.400;11.092;2022-10-13T05:46:11;40.80;;;21.00;;
3547;SDS011;1788;49.400;11.092;2022-10-13T05:48:37;37.97;;;17.63;;
3547;SDS011;1788;49.400;11.092;2022-10-13T05:51:05;43.93;;;21.27;;
3547;SDS011;1788;49.400;11.092;2022-10-13T05:53:31;46.57;;;22.00;;
3547;SDS011;1788;49.400;11.092;2022-10-13T05:55:58;43.87;;;19.97;;
3547;SDS011;1788;49.400;11.092;2022-10-13T05:58:24;39.73;;;19.67;;
3547;SDS011;1788;49.400;11.092;2022-10-13T06:00:51;41.07;;;20.83;;
3547;SDS011;1788;49.400;11.092;2022-10-13T06:03:18;38.77;;;20.03;;
3547;SDS011;1788;49.400;11.092;2022-10-13T06:05:44;40.37;;;19.63;;
3547;SDS011;1788;49.400;11.092;2022-10-13T06:08:11;45.20;;;20.57;;
3547;SDS011;1788;49.400;11.092;2022-10-13T06:10:37;41.47;;;19.87;;
3547;SDS011;1788;49.400;11.092;2022-10-13T06:13:04;49.13;;;21.93;;
3547;SDS011;1788;49.400;11.092;2022-10-13T06:17:58;50.47;;;21.43;;
3547;SDS011;1788;49.400;11.092;2022-10-13T06:20:26;41.23;;;19.13;;
3547;SDS011;1788;49.400;11.092;2022-10-13T06:25:19;45.47;;;20.10;;
3547;SDS011;1788;49.400;11.092;2022-10-13T06:27:47;41.80;;;20.70;;
3547;SDS011;1788;49.400;11.092;2022-10-13T06:30:13;39.00;;;19.17;;
3547;SDS011;1788;49.400;11.092;2022-10-13T06:32:41;45.10;;;20.53;;
3547;SDS011;1788;49.400;11.092;2022-10-13T06:35:07;39.63;;;18.00;;
3547;SDS011;1788;49.400;11.092;2022-10-13T06:37:35;43.10;;;19.60;;
3547;SDS011;1788;49.400;11.092;2022-10-13T06:40:01;42.40;;;19.90;;
3547;SDS011;1788;49.400;11.092;2022-10-13T06:42:29;42.50;;;18.50;;
3547;SDS011;1788;49.400;11.092;2022-10-13T06:44:55;44.47;;;20.07;;
3547;SDS011;1788;49.400;11.092;2022-10-13T06:47:22;40.70;;;19.50;;
3547;SDS011;1788;49.400;11.092;2022-10-13T06:49:49;36.60;;;18.77;;
3547;SDS011;1788;49.400;11.092;2022-10-13T06:52:15;43.80;;;19.00;;
3547;SDS011;1788;49.400;11.092;2022-10-13T06:54:42;41.17;;;20.67;;
3547;SDS011;1788;49.400;11.092;2022-10-13T06:57:08;42.50;;;18.67;;
3547;SDS011;1788;49.400;11.092;2022-10-13T06:59:35;33.07;;;15.23;;
3547;SDS011;1788;49.400;11.092;2022-10-13T07:02:02;38.90;;;20.07;;
3547;SDS011;1788;49.400;11.092;2022-10-13T07:04:28;41.60;;;20.67;;
3547;SDS011;1788;49.400;11.092;2022-10-13T07:06:55;41.70;;;18.00;;
3547;SDS011;1788;49.400;11.092;2022-10-13T07:09:22;42.93;;;20.20;;
3547;SDS011;1788;49.400;11.092;2022-10-13T07:11:48;36.23;;;17.40;;
3547;SDS011;1788;49.400;11.092;2022-10-13T07:14:15;44.90;;;18.77;;
3547;SDS011;1788;49.400;11.092;2022-10-13T07:16:42;37.90;;;17.97;;
3547;SDS011;1788;49.400;11.092;2022-10-13T07:19:08;42.53;;;19.20;;
3547;SDS011;1788;49.400;11.092;2022-10-13T07:21:35;35.60;;;18.57;;
3547;SDS011;1788;49.400;11.092;2022-10-13T07:24:01;36.43;;;17.60;;
3547;SDS011;1788;49.400;11.092;2022-10-13T07:26:28;33.60;;;16.57;;
3547;SDS011;1788;49.400;11.092;2022-10-13T07:28:55;42.03;;;18.37;;
3547;SDS011;1788;49.400;11.092;2022-10-13T07:31:22;41.43;;;18.27;;
3547;SDS011;1788;49.400;11.092;2022-10-13T07:33:49;35.00;;;16.47;;
3547;SDS011;1788;49.400;11.092;2022-10-13T07:36:17;38.03;;;18.53;;
3547;SDS011;1788;49.400;11.092;2022-10-13T07:38:43;42.10;;;18.83;;
3547;SDS011;1788;49.400;11.092;2022-10-13T07:41:11;36.93;;;19.10;;
3547;SDS011;1788;49.400;11.092;2022-10-13T07:43:37;33.67;;;17.80;;
3547;SDS011;1788;49.400;11.092;2022-10-13T07:46:05;39.17;;;17.83;;
3547;SDS011;1788;49.400;11.092;2022-10-13T07:48:31;34.57;;;16.17;;
3547;SDS011;1788;49.400;11.092;2022-10-13T07:51:01;35.63;;;17.97;;
3547;SDS011;1788;49.400;11.092;2022-10-13T07:53:25;40.60;;;18.90;;
3547;SDS011;1788;49.400;11.092;2022-10-13T07:55:52;33.67;;;16.33;;
3547;SDS011;1788;49.400;11.092;2022-10-13T07:58:19;33.47;;;16.23;;
3547;SDS011;1788;49.400;11.092;2022-10-13T08:00:54;29.33;;;16.57;;
3547;SDS011;1788;49.400;11.092;2022-10-13T08:03:12;30.27;;;16.70;;
3547;SDS011;1788;49.400;11.092;2022-10-13T08:05:39;30.70;;;19.27;;
3547;SDS011;1788;49.400;11.092;2022-10-13T08:08:05;34.83;;;16.87;;
3547;SDS011;1788;49.400;11.092;2022-10-13T08:10:32;29.03;;;16.37;;
3547;SDS011;1788;49.400;11.092;2022-10-13T08:15:27;30.63;;;16.67;;
3547;SDS011;1788;49.400;11.092;2022-10-13T08:17:53;28.20;;;15.20;;
3547;SDS011;1788;49.400;11.092;2022-10-13T08:20:20;29.73;;;15.67;;
3547;SDS011;1788;49.400;11.092;2022-10-13T08:22:47;26.83;;;14.27;;
3547;SDS011;1788;49.400;11.092;2022-10-13T08:25:14;24.47;;;13.60;;
3547;SDS011;1788;49.400;11.092;2022-10-13T08:27:42;26.70;;;14.77;;
3547;SDS011;1788;49.400;11.092;2022-10-13T08:32:36;29.47;;;14.13;;
3547;SDS011;1788;49.400;11.092;2022-10-13T08:35:02;25.37;;;15.30;;
3547;SDS011;1788;49.400;11.092;2022-10-13T08:37:29;32.30;;;14.30;;
3547;SDS011;1788;49.400;11.092;2022-10-13T08:39:56;19.20;;;12.47;;
3547;SDS011;1788;49.400;11.092;2022-10-13T08:42:23;26.17;;;13.40;;
3547;SDS011;1788;49.400;11.092;2022-10-13T08:49:43;27.20;;;14.63;;
3547;SDS011;1788;49.400;11.092;2022-10-13T08:52:12;24.53;;;13.83;;
3547;SDS011;1788;49.400;11.092;2022-10-13T08:54:37;30.17;;;15.57;;
3547;SDS011;1788;49.400;11.092;2022-10-13T08:57:03;23.87;;;13.43;;
3547;SDS011;1788;49.400;11.092;2022-10-13T08:59:31;24.50;;;14.37;;
3547;SDS011;1788;49.400;11.092;2022-10-13T09:01:57;30.10;;;14.83;;
3547;SDS011;1788;49.400;11.092;2022-10-13T09:09:19;23.63;;;14.10;;
3547;SDS011;1788;49.400;11.092;2022-10-13T09:11:46;28.57;;;14.57;;
3547;SDS011;1788;49.400;11.092;2022-10-13T09:16:41;26.67;;;14.50;;
3547;SDS011;1788;49.400;11.092;2022-10-13T09:21:33;26.40;;;14.27;;
3547;SDS011;1788;49.400;11.092;2022-10-13T09:24:04;27.67;;;14.20;;
3547;SDS011;1788;49.400;11.092;2022-10-13T09:26:27;27.03;;;14.73;;
3547;SDS011;1788;49.400;11.092;2022-10-13T09:28:53;29.47;;;15.23;;
3547;SDS011;1788;49.400;11.092;2022-10-13T09:31:22;24.27;;;14.63;;
3547;SDS011;1788;49.400;11.092;2022-10-13T09:33:55;28.60;;;14.67;;
3547;SDS011;1788;49.400;11.092;2022-10-13T09:36:14;26.43;;;14.70;;
3547;SDS011;1788;49.400;11.092;2022-10-13T09:38:43;18.83;;;12.13;;
3547;SDS011;1788;49.400;11.092;2022-10-13T09:43:36;25.50;;;13.80;;
3547;SDS011;1788;49.400;11.092;2022-10-13T09:46:02;22.50;;;14.50;;
3547;SDS011;1788;49.400;11.092;2022-10-13T09:48:29;25.43;;;14.03;;
3547;SDS011;1788;49.400;11.092;2022-10-13T09:50:55;27.07;;;14.33;;
3547;SDS011;1788;49.400;11.092;2022-10-13T09:53:24;25.97;;;14.30;;
3547;SDS011;1788;49.400;11.092;2022-10-13T09:55:49;25.53;;;14.00;;
3547;SDS011;1788;49.400;11.092;2022-10-13T09:58:18;29.07;;;14.73;;
3547;SDS011;1788;49.400;11.092;2022-10-13T10:00:42;26.67;;;14.17;;
3547;SDS011;1788;49.400;11.092;2022-10-13T10:17:57;21.70;;;12.80;;
3547;SDS011;1788;49.400;11.092;2022-10-13T10:22:51;23.53;;;13.17;;
3547;SDS011;1788;49.400;11.092;2022-10-13T10:27:45;18.80;;;12.03;;
3547;SDS011;1788;49.400;11.092;2022-10-13T10:30:16;21.20;;;13.10;;
3547;SDS011;1788;49.400;11.092;2022-10-13T10:37:35;22.07;;;13.83;;
3547;SDS011;1788;49.400;11.092;2022-10-13T10:44:50;23.63;;;13.50;;
3547;SDS011;1788;49.400;11.092;2022-10-13T10:49:44;20.83;;;13.13;;
3547;SDS011;1788;49.400;11.092;2022-10-13T10:52:16;22.53;;;13.97;;
3547;SDS011;1788;49.400;11.092;2022-10-13T10:57:08;19.73;;;12.93;;
3547;SDS011;1788;49.400;11.092;2022-10-13T11:06:53;20.63;;;10.77;;
3547;SDS011;1788;49.400;11.092;2022-10-13T11:11:46;17.27;;;11.70;;
3547;SDS011;1788;49.400;11.092;2022-10-13T11:24:00;16.70;;;10.40;;
3547;SDS011;1788;49.400;11.092;2022-10-13T11:26:27;16.60;;;10.97;;
3547;SDS011;1788;49.400;11.092;2022-10-13T11:28:54;17.13;;;10.60;;
3547;SDS011;1788;49.400;11.092;2022-10-13T11:38:40;17.33;;;11.00;;
3547;SDS011;1788;49.400;11.092;2022-10-13T11:41:11;19.13;;;10.90;;
3547;SDS011;1788;49.400;11.092;2022-10-13T11:53:23;19.97;;;10.73;;
3547;SDS011;1788;49.400;11.092;2022-10-13T11:55:49;16.43;;;10.30;;
3547;SDS011;1788;49.400;11.092;2022-10-13T11:58:16;17.40;;;10.67;;
3547;SDS011;1788;49.400;11.092;2022-10-13T12:03:17;14.73;;;9.30;;
3547;SDS011;1788;49.400;11.092;2022-10-13T12:05:35;19.10;;;10.07;;
3547;SDS011;1788;49.400;11.092;2022-10-13T12:08:02;19.97;;;10.80;;
3547;SDS011;1788;49.400;11.092;2022-10-13T12:12:56;22.53;;;11.13;;
3547;SDS011;1788;49.400;11.092;2022-10-13T12:17:49;19.77;;;12.40;;
3547;SDS011;1788;49.400;11.092;2022-10-13T12:25:14;19.83;;;11.23;;
3547;SDS011;1788;49.400;11.092;2022-10-13T12:30:02;20.27;;;12.57;;
3547;SDS011;1788;49.400;11.092;2022-10-13T12:32:29;22.67;;;12.70;;
3547;SDS011;1788;49.400;11.092;2022-10-13T12:35:08;22.13;;;11.97;;
3547;SDS011;1788;49.400;11.092;2022-10-13T12:39:49;21.43;;;11.40;;
3547;SDS011;1788;49.400;11.092;2022-10-13T12:42:15;21.57;;;12.63;;
3547;SDS011;1788;49.400;11.092;2022-10-13T12:44:43;23.20;;;12.07;;
3547;SDS011;1788;49.400;11.092;2022-10-13T12:49:36;18.80;;;10.93;;
3547;SDS011;1788;49.400;11.092;2022-10-13T12:54:30;20.40;;;11.57;;
3547;SDS011;1788;49.400;11.092;2022-10-13T12:59:23;20.07;;;11.57;;
3547;SDS011;1788;49.400;11.092;2022-10-13T13:04:17;19.07;;;10.50;;
3547;SDS011;1788;49.400;11.092;2022-10-13T13:11:36;19.43;;;12.03;;
3547;SDS011;1788;49.400;11.092;2022-10-13T13:16:30;18.93;;;11.73;;
3547;SDS011;1788;49.400;11.092;2022-10-13T13:18:56;23.90;;;12.03;;
3547;SDS011;1788;49.400;11.092;2022-10-13T13:21:24;21.33;;;11.47;;
3547;SDS011;1788;49.400;11.092;2022-10-13T13:23:50;16.47;;;11.20;;
3547;SDS011;1788;49.400;11.092;2022-10-13T13:26:19;26.53;;;12.83;;
3547;SDS011;1788;49.400;11.092;2022-10-13T13:28:45;23.60;;;12.67;;
3547;SDS011;1788;49.400;11.092;2022-10-13T13:31:12;22.53;;;12.50;;
3547;SDS011;1788;49.400;11.092;2022-10-13T13:33:38;19.93;;;10.70;;
3547;SDS011;1788;49.400;11.092;2022-10-13T13:38:32;18.47;;;11.10;;
3547;SDS011;1788;49.400;11.092;2022-10-13T13:40:59;18.80;;;11.00;;
3547;SDS011;1788;49.400;11.092;2022-10-13T13:43:26;19.90;;;11.77;;
3547;SDS011;1788;49.400;11.092;2022-10-13T13:45:53;18.87;;;10.43;;
3547;SDS011;1788;49.400;11.092;2022-10-13T13:48:19;20.17;;;11.30;;
3547;SDS011;1788;49.400;11.092;2022-10-13T13:50:46;20.50;;;11.23;;
3547;SDS011;1788;49.400;11.092;2022-10-13T13:53:14;19.57;;;11.57;;
3547;SDS011;1788;49.400;11.092;2022-10-13T13:55:41;20.17;;;11.00;;
3547;SDS011;1788;49.400;11.092;2022-10-13T13:58:08;20.67;;;11.43;;
3547;SDS011;1788;49.400;11.092;2022-10-13T14:00:34;20.50;;;11.97;;
3547;SDS011;1788;49.400;11.092;2022-10-13T14:03:01;21.63;;;11.67;;
3547;SDS011;1788;49.400;11.092;2022-10-13T14:05:28;22.03;;;12.13;;
3547;SDS011;1788;49.400;11.092;2022-10-13T14:07:55;20.47;;;10.93;;
3547;SDS011;1788;49.400;11.092;2022-10-13T14:10:22;20.80;;;10.50;;
3547;SDS011;1788;49.400;11.092;2022-10-13T14:12:50;18.47;;;11.20;;
3547;SDS011;1788;49.400;11.092;2022-10-13T14:15:16;16.67;;;10.40;;
3547;SDS011;1788;49.400;11.092;2022-10-13T14:17:43;19.47;;;10.97;;
3547;SDS011;1788;49.400;11.092;2022-10-13T14:20:10;16.40;;;10.10;;
3547;SDS011;1788;49.400;11.092;2022-10-13T14:22:37;15.30;;;10.20;;
3547;SDS011;1788;49.400;11.092;2022-10-13T14:25:04;18.27;;;11.73;;
3547;SDS011;1788;49.400;11.092;2022-10-13T14:27:32;21.27;;;11.33;;
3547;SDS011;1788;49.400;11.092;2022-10-13T14:29:58;21.33;;;10.53;;
3547;SDS011;1788;49.400;11.092;2022-10-13T14:32:24;20.93;;;11.20;;
3547;SDS011;1788;49.400;11.092;2022-10-13T14:34:52;19.30;;;11.57;;
3547;SDS011;1788;49.400;11.092;2022-10-13T14:37:18;16.90;;;10.27;;
3547;SDS011;1788;49.400;11.092;2022-10-13T14:39:46;22.20;;;12.13;;
3547;SDS011;1788;49.400;11.092;2022-10-13T14:42:12;24.53;;;10.60;;
3547;SDS011;1788;49.400;11.092;2022-10-13T14:44:40;15.40;;;10.03;;
3547;SDS011;1788;49.400;11.092;2022-10-13T14:47:06;17.23;;;10.17;;
3547;SDS011;1788;49.400;11.092;2022-10-13T14:49:34;17.47;;;10.30;;
3547;SDS011;1788;49.400;11.092;2022-10-13T14:52:00;16.47;;;10.43;;
3547;SDS011;1788;49.400;11.092;2022-10-13T14:54:28;13.17;;;8.50;;
3547;SDS011;1788;49.400;11.092;2022-10-13T14:56:54;16.67;;;9.93;;
3547;SDS011;1788;49.400;11.092;2022-10-13T14:59:21;21.10;;;11.97;;
3547;SDS011;1788;49.400;11.092;2022-10-13T15:01:47;19.23;;;10.00;;
3547;SDS011;1788;49.400;11.092;2022-10-13T15:04:14;15.77;;;9.73;;
3547;SDS011;1788;49.400;11.092;2022-10-13T15:06:41;19.37;;;9.17;;
3547;SDS011;1788;49.400;11.092;2022-10-13T15:09:09;13.20;;;9.00;;
3547;SDS011;1788;49.400;11.092;2022-10-13T15:11:36;16.13;;;9.57;;
3547;SDS011;1788;49.400;11.092;2022-10-13T15:14:03;12.47;;;8.93;;
3547;SDS011;1788;49.400;11.092;2022-10-13T15:16:30;15.20;;;8.90;;
3547;SDS011;1788;49.400;11.092;2022-10-13T15:18:57;18.17;;;10.27;;
3547;SDS011;1788;49.400;11.092;2022-10-13T15:21:24;13.23;;;8.50;;
3547;SDS011;1788;49.400;11.092;2022-10-13T15:23:52;13.73;;;9.23;;
3547;SDS011;1788;49.400;11.092;2022-10-13T15:26:19;17.43;;;10.07;;
3547;SDS011;1788;49.400;11.092;2022-10-13T15:28:46;18.40;;;9.87;;
3547;SDS011;1788;49.400;11.092;2022-10-13T15:31:12;15.20;;;9.20;;
3547;SDS011;1788;49.400;11.092;2022-10-13T15:33:41;16.17;;;9.33;;
3547;SDS011;1788;49.400;11.092;2022-10-13T15:36:05;14.47;;;8.90;;
3547;SDS011;1788;49.400;11.092;2022-10-13T15:38:32;15.67;;;9.73;;
3547;SDS011;1788;49.400;11.092;2022-10-13T15:40:59;17.33;;;9.50;;
3547;SDS011;1788;49.400;11.092;2022-10-13T15:43:26;16.20;;;10.17;;
3547;SDS011;1788;49.400;11.092;2022-10-13T15:45:53;19.47;;;11.70;;
3547;SDS011;1788;49.400;11.092;2022-10-13T15:48:19;18.50;;;11.10;;
3547;SDS011;1788;49.400;11.092;2022-10-13T15:50:45;19.20;;;11.00;;
3547;SDS011;1788;49.400;11.092;2022-10-13T15:53:12;16.30;;;10.40;;
3547;SDS011;1788;49.400;11.092;2022-10-13T15:55:39;17.97;;;9.57;;
3547;SDS011;1788;49.400;11.092;2022-10-13T15:58:05;14.93;;;9.47;;
3547;SDS011;1788;49.400;11.092;2022-10-13T16:00:32;14.63;;;10.17;;
3547;SDS011;1788;49.400;11.092;2022-10-13T16:02:58;18.37;;;12.10;;
3547;SDS011;1788;49.400;11.092;2022-10-13T16:05:25;17.27;;;12.83;;
3547;SDS011;1788;49.400;11.092;2022-10-13T16:07:52;19.60;;;13.30;;
3547;SDS011;1788;49.400;11.092;2022-10-13T16:10:20;19.87;;;13.33;;
3547;SDS011;1788;49.400;11.092;2022-10-13T16:12:46;14.43;;;10.93;;
3547;SDS011;1788;49.400;11.092;2022-10-13T16:15:13;15.03;;;9.60;;
3547;SDS011;1788;49.400;11.092;2022-10-13T16:17:40;15.80;;;9.70;;
3547;SDS011;1788;49.400;11.092;2022-10-13T16:20:07;14.27;;;8.73;;
3547;SDS011;1788;49.400;11.092;2022-10-13T16:22:34;17.27;;;10.07;;
3547;SDS011;1788;49.400;11.092;2022-10-13T16:25:02;13.13;;;9.57;;
3547;SDS011;1788;49.400;11.092;2022-10-13T16:27:28;12.97;;;9.00;;
3547;SDS011;1788;49.400;11.092;2022-10-13T16:29:55;17.07;;;9.97;;
3547;SDS011;1788;49.400;11.092;2022-10-13T16:32:21;15.93;;;9.80;;
3547;SDS011;1788;49.400;11.092;2022-10-13T16:34:48;14.60;;;9.87;;
3547;SDS011;1788;49.400;11.092;2022-10-13T16:37:15;17.17;;;9.07;;
3547;SDS011;1788;49.400;11.092;2022-10-13T16:39:41;17.10;;;10.03;;
3547;SDS011;1788;49.400;11.092;2022-10-13T16:42:08;15.93;;;9.90;;
3547;SDS011;1788;49.400;11.092;2022-10-13T16:44:34;16.43;;;9.93;;
3547;SDS011;1788;49.400;11.092;2022-10-13T16:47:01;17.63;;;11.30;;
3547;SDS011;1788;49.400;11.092;2022-10-13T16:49:28;24.80;;;12.67;;
3547;SDS011;1788;49.400;11.092;2022-10-13T16:51:54;19.53;;;13.47;;
3547;SDS011;1788;49.400;11.092;2022-10-13T16:54:21;19.07;;;11.00;;
3547;SDS011;1788;49.400;11.092;2022-10-13T16:56:48;17.07;;;10.93;;
3547;SDS011;1788;49.400;11.092;2022-10-13T16:59:15;15.83;;;9.90;;
3547;SDS011;1788;49.400;11.092;2022-10-13T17:01:41;20.67;;;11.23;;
3547;SDS011;1788;49.400;11.092;2022-10-13T17:04:09;16.77;;;11.83;;
3547;SDS011;1788;49.400;11.092;2022-10-13T17:06:35;21.67;;;14.47;;
3547;SDS011;1788;49.400;11.092;2022-10-13T17:09:02;17.97;;;12.63;;
3547;SDS011;1788;49.400;11.092;2022-10-13T17:11:29;16.20;;;11.03;;
3547;SDS011;1788;49.400;11.092;2022-10-13T17:13:56;19.13;;;11.90;;
3547;SDS011;1788;49.400;11.092;2022-10-13T17:16:23;28.50;;;14.67;;
3547;SDS011;1788;49.400;11.092;2022-10-13T17:18:49;24.47;;;15.47;;
3547;SDS011;1788;49.400;11.092;2022-10-13T17:21:16;23.67;;;13.00;;
3547;SDS011;1788;49.400;11.092;2022-10-13T17:23:43;25.27;;;14.80;;
3547;SDS011;1788;49.400;11.092;2022-10-13T17:26:11;19.20;;;11.17;;